createdAt,value
2023-09-20T00:02:14.575Z,100.00
2023-09-20T00:04:43.432Z,100.00
2023-09-20T00:07:11.648Z,100.00
2023-09-20T00:09:39.899Z,100.00
2023-09-20T00:12:08.375Z,100.00
2023-09-20T00:14:36.544Z,100.00
2023-09-20T00:17:04.530Z,100.00
2023-09-20T00:19:34.211Z,100.00
2023-09-20T00:22:02.393Z,100.00
2023-09-20T00:24:30.170Z,100.00
2023-09-20T00:26:58.488Z,99.56
2023-09-20T00:29:27.906Z,99.28
2023-09-20T00:31:56.910Z,98.61
2023-09-20T00:34:25.098Z,98.84
2023-09-20T00:36:54.298Z,98.71
2023-09-20T00:39:22.006Z,99.50
2023-09-20T00:41:51.132Z,100.00
2023-09-20T00:44:20.253Z,100.00
2023-09-20T00:46:48.786Z,100.00
2023-09-20T00:49:17.726Z,100.00
2023-09-20T00:51:48.245Z,100.00
2023-09-20T00:54:18.757Z,100.00
2023-09-20T00:56:46.877Z,100.00
2023-09-20T00:59:16.206Z,100.00
2023-09-20T01:01:44.214Z,100.00
2023-09-20T01:04:13.291Z,100.00
2023-09-20T01:06:42.802Z,100.00
2023-09-20T01:09:11.162Z,100.00
2023-09-20T01:11:41.623Z,100.00
2023-09-20T01:14:09.835Z,100.00
2023-09-20T01:16:37.718Z,100.00
2023-09-20T01:19:06.156Z,100.00
2023-09-20T01:21:44.246Z,100.00
2023-09-20T01:24:13.250Z,100.00
2023-09-20T01:26:42.908Z,100.00
2023-09-20T01:29:13.219Z,100.00
2023-09-20T01:31:41.235Z,100.00
2023-09-20T01:34:09.023Z,100.00
2023-09-20T01:36:38.030Z,100.00
2023-09-20T01:39:10.588Z,100.00
2023-09-20T01:41:39.022Z,100.00
2023-09-20T01:44:08.321Z,100.00
2023-09-20T01:46:38.400Z,100.00
2023-09-20T01:49:07.795Z,100.00
2023-09-20T01:51:35.852Z,100.00
2023-09-20T01:54:04.940Z,100.00
2023-09-20T01:56:34.042Z,100.00
2023-09-20T01:59:01.863Z,100.00
2023-09-20T02:01:30.391Z,100.00
2023-09-20T02:03:58.425Z,100.00
2023-09-20T02:06:26.286Z,100.00
2023-09-20T02:08:54.421Z,100.00
2023-09-20T02:11:22.659Z,100.00
2023-09-20T02:13:51.865Z,100.00
2023-09-20T02:16:19.651Z,100.00
2023-09-20T02:18:49.443Z,100.00
2023-09-20T02:21:18.197Z,100.00
2023-09-20T02:23:47.550Z,100.00
2023-09-20T02:26:15.327Z,100.00
2023-09-20T02:28:43.636Z,100.00
2023-09-20T02:31:13.628Z,100.00
2023-09-20T02:33:41.479Z,100.00
2023-09-20T02:36:13.374Z,100.00
2023-09-20T02:38:41.316Z,100.00
2023-09-20T02:41:10.028Z,100.00
2023-09-20T02:43:39.209Z,100.00
2023-09-20T02:46:08.435Z,100.00
2023-09-20T02:48:37.611Z,100.00
2023-09-20T02:51:06.541Z,100.00
2023-09-20T02:53:36.906Z,100.00
2023-09-20T02:56:06.597Z,100.00
2023-09-20T02:58:34.913Z,100.00
2023-09-20T03:01:03.516Z,100.00
2023-09-20T03:03:31.682Z,100.00
2023-09-20T03:06:10.126Z,100.00
2023-09-20T03:08:43.033Z,100.00
2023-09-20T03:11:11.113Z,100.00
2023-09-20T03:13:39.058Z,100.00
2023-09-20T03:16:06.817Z,100.00
2023-09-20T03:18:35.457Z,100.00
2023-09-20T03:21:11.488Z,100.00
2023-09-20T03:23:41.176Z,100.00
2023-09-20T03:26:10.779Z,100.00
2023-09-20T03:28:39.246Z,100.00
2023-09-20T03:31:11.403Z,100.00
2023-09-20T03:33:39.950Z,100.00
2023-09-20T03:36:16.896Z,100.00
2023-09-20T03:38:48.723Z,100.00
2023-09-20T03:41:16.626Z,100.00
2023-09-20T03:43:46.711Z,100.00
2023-09-20T03:46:15.773Z,100.00
2023-09-20T03:48:45.726Z,100.00
2023-09-20T03:51:18.437Z,100.00
2023-09-20T03:53:47.397Z,100.00
2023-09-20T03:56:21.007Z,100.00
2023-09-20T03:58:50.411Z,100.00
2023-09-20T04:01:18.418Z,100.00
2023-09-20T04:03:46.866Z,100.00
2023-09-20T04:06:14.903Z,100.00
2023-09-20T04:08:44.311Z,100.00
2023-09-20T04:11:13.668Z,100.00
2023-09-20T04:13:41.762Z,100.00
2023-09-20T04:16:09.702Z,100.00
2023-09-20T04:18:38.430Z,100.00
2023-09-20T04:21:06.526Z,100.00
2023-09-20T04:23:34.581Z,100.00
2023-09-20T04:26:04.958Z,100.00
2023-09-20T04:28:32.930Z,100.00
2023-09-20T04:31:01.577Z,100.00
2023-09-20T04:33:30.565Z,100.00
2023-09-20T04:35:59.901Z,100.00
2023-09-20T04:38:29.084Z,100.00
2023-09-20T04:40:58.048Z,100.00
2023-09-20T04:43:27.849Z,100.00
2023-09-20T04:45:56.502Z,100.00
2023-09-20T04:48:25.527Z,100.00
2023-09-20T04:50:56.803Z,100.00
2023-09-20T04:53:25.332Z,100.00
2023-09-20T04:55:53.040Z,100.00
2023-09-20T04:58:21.647Z,100.00
2023-09-20T05:00:50.932Z,100.00
2023-09-20T05:03:20.809Z,100.00
2023-09-20T05:05:53.406Z,100.00
2023-09-20T05:08:21.499Z,100.00
2023-09-20T05:10:49.359Z,100.00
2023-09-20T05:13:18.376Z,100.00
2023-09-20T05:15:47.028Z,100.00
2023-09-20T05:18:17.216Z,100.00
2023-09-20T05:20:46.024Z,100.00
2023-09-20T05:23:14.141Z,100.00
2023-09-20T05:25:42.012Z,100.00
2023-09-20T05:28:09.731Z,100.00
2023-09-20T05:30:37.686Z,100.00
2023-09-20T05:33:06.234Z,100.00
2023-09-20T05:35:36.067Z,100.00
2023-09-20T05:38:04.368Z,100.00
2023-09-20T05:40:32.757Z,100.00
2023-09-20T05:43:02.580Z,100.00
2023-09-20T05:45:30.985Z,100.00
2023-09-20T05:47:59.285Z,100.00
2023-09-20T05:50:34.741Z,100.00
2023-09-20T05:53:07.902Z,100.00
2023-09-20T05:55:39.057Z,100.00
2023-09-20T05:58:07.309Z,100.00
2023-09-20T06:00:36.586Z,100.00
2023-09-20T06:03:05.931Z,100.00
2023-09-20T06:05:36.727Z,100.00
2023-09-20T06:08:08.302Z,100.00
2023-09-20T06:10:36.898Z,100.00
2023-09-20T06:13:06.575Z,100.00
2023-09-20T06:15:34.364Z,100.00
2023-09-20T06:18:02.209Z,100.00
2023-09-20T06:20:29.997Z,100.00
2023-09-20T06:22:58.050Z,100.00
2023-09-20T06:25:27.888Z,100.00
2023-09-20T06:27:55.910Z,100.00
2023-09-20T06:30:25.571Z,100.00
2023-09-20T06:32:53.905Z,100.00
2023-09-20T06:35:23.684Z,100.00
2023-09-20T06:37:52.766Z,100.00
2023-09-20T06:40:24.033Z,100.00
2023-09-20T06:42:53.183Z,100.00
2023-09-20T06:45:22.092Z,100.00
2023-09-20T06:47:51.007Z,100.00
2023-09-20T06:50:19.140Z,100.00
2023-09-20T06:52:48.048Z,100.00
2023-09-20T06:55:19.015Z,100.00
2023-09-20T06:57:48.916Z,100.00
2023-09-20T07:00:28.222Z,100.00
2023-09-20T07:02:58.212Z,100.00
2023-09-20T07:05:29.321Z,100.00
2023-09-20T07:07:59.512Z,100.00
2023-09-20T07:10:30.578Z,100.00
2023-09-20T07:12:58.601Z,100.00
2023-09-20T07:15:29.407Z,100.00
2023-09-20T07:18:12.724Z,100.00
2023-09-20T07:20:42.434Z,100.00
2023-09-20T07:23:14.382Z,100.00
2023-09-20T07:25:44.331Z,100.00
2023-09-20T07:28:12.607Z,100.00
2023-09-20T07:30:46.709Z,100.00
2023-09-20T07:33:21.171Z,100.00
2023-09-20T07:36:00.349Z,100.00
2023-09-20T07:38:40.016Z,100.00
2023-09-20T07:41:11.920Z,99.85
2023-09-20T07:43:40.446Z,98.38
2023-09-20T07:46:10.281Z,98.12
2023-09-20T07:48:45.293Z,96.61
2023-09-20T07:51:17.586Z,97.71
2023-09-20T07:53:46.068Z,97.58
2023-09-20T07:56:15.124Z,96.21
2023-09-20T07:58:45.562Z,95.09
2023-09-20T08:01:18.294Z,95.57
2023-09-20T08:03:52.498Z,96.22
2023-09-20T08:06:21.327Z,94.26
2023-09-20T08:08:49.860Z,93.45
2023-09-20T08:11:20.731Z,92.91
2023-09-20T08:13:51.406Z,92.93
2023-09-20T08:16:21.327Z,92.62
2023-09-20T08:19:10.898Z,92.15
2023-09-20T08:21:40.039Z,91.85
2023-09-20T08:24:25.630Z,91.54
2023-09-20T08:27:12.159Z,91.51
2023-09-20T08:30:00.180Z,92.30
2023-09-20T08:32:47.661Z,90.27
2023-09-20T08:35:33.115Z,89.93
2023-09-20T08:38:18.465Z,86.94
2023-09-20T08:41:04.045Z,85.19
2023-09-20T08:43:49.646Z,85.36
2023-09-20T08:46:36.572Z,85.81
2023-09-20T08:49:24.456Z,86.50
2023-09-20T08:52:13.729Z,84.53
2023-09-20T08:54:59.703Z,82.46
2023-09-20T08:57:47.231Z,83.64
2023-09-20T09:00:23.791Z,83.30
2023-09-20T09:02:55.576Z,81.78
2023-09-20T09:05:27.348Z,80.72
2023-09-20T09:07:56.278Z,78.34
2023-09-20T09:10:24.054Z,78.26
2023-09-20T09:12:51.752Z,78.65
2023-09-20T09:15:19.929Z,78.84
2023-09-20T09:17:49.700Z,78.62
2023-09-20T09:20:20.603Z,78.72
2023-09-20T09:22:51.553Z,79.29
2023-09-20T09:25:21.903Z,76.28
2023-09-20T09:27:49.662Z,75.11
2023-09-20T09:30:19.693Z,75.92
2023-09-20T09:32:49.179Z,74.20
2023-09-20T09:35:27.537Z,74.39
2023-09-20T09:38:03.345Z,72.32
2023-09-20T09:40:32.116Z,72.88
2023-09-20T09:43:13.074Z,75.11
2023-09-20T09:45:40.960Z,76.74
2023-09-20T09:48:09.092Z,77.31
2023-09-20T09:50:41.777Z,78.32
2023-09-20T09:53:11.684Z,79.04
2023-09-20T09:55:40.437Z,79.40
2023-09-20T09:58:10.149Z,80.00
2023-09-20T10:00:41.889Z,79.21
2023-09-20T10:03:17.490Z,77.16
2023-09-20T10:05:48.087Z,77.80
2023-09-20T10:08:23.094Z,75.09
2023-09-20T10:10:51.943Z,74.99
2023-09-20T10:13:19.818Z,76.29
2023-09-20T10:15:47.847Z,74.63
2023-09-20T10:18:15.728Z,74.09
2023-09-20T10:20:59.072Z,75.63
2023-09-20T10:23:28.494Z,72.93
2023-09-20T10:26:01.910Z,72.47
2023-09-20T10:28:38.918Z,73.25
2023-09-20T10:31:08.070Z,71.80
2023-09-20T10:33:46.220Z,70.86
2023-09-20T10:36:16.237Z,69.91
2023-09-20T10:38:47.357Z,70.52
2023-09-20T10:41:16.565Z,69.69
2023-09-20T10:43:49.910Z,71.10
2023-09-20T10:46:20.334Z,70.13
2023-09-20T10:48:51.220Z,69.54
2023-09-20T10:51:44.808Z,68.89
2023-09-20T10:54:30.810Z,68.67
2023-09-20T10:59:33.340Z,67.63
2023-09-20T11:02:10.957Z,67.45
2023-09-20T11:04:40.374Z,66.75
2023-09-20T11:07:10.512Z,65.13
2023-09-20T11:09:40.474Z,64.50
2023-09-20T11:12:09.717Z,64.84
2023-09-20T11:14:41.094Z,65.48
2023-09-20T11:17:10.461Z,65.46
2023-09-20T11:19:41.190Z,63.94
2023-09-20T11:22:09.115Z,63.32
2023-09-20T11:24:42.872Z,63.21
2023-09-20T11:27:12.959Z,62.13
2023-09-20T11:29:45.330Z,59.73
2023-09-20T11:32:13.444Z,58.18
2023-09-20T11:34:46.480Z,56.19
2023-09-20T11:37:19.110Z,58.08
2023-09-20T11:39:50.004Z,57.29
2023-09-20T11:42:28.612Z,56.75
2023-09-20T11:45:07.246Z,57.24
2023-09-20T11:47:45.717Z,55.56
2023-09-20T11:50:15.297Z,56.36
2023-09-20T11:52:46.513Z,57.31
2023-09-20T11:55:16.746Z,57.42
2023-09-20T11:57:46.434Z,58.23
2023-09-20T12:00:18.098Z,57.54
2023-09-20T12:02:46.913Z,59.48
2023-09-20T12:05:15.439Z,58.57
2023-09-20T12:07:54.324Z,59.17
2023-09-20T12:10:24.020Z,58.37
2023-09-20T12:12:53.888Z,55.62
2023-09-20T12:15:23.837Z,53.98
2023-09-20T12:17:53.050Z,52.98
2023-09-20T12:20:21.302Z,51.12
2023-09-20T12:22:49.396Z,51.14
2023-09-20T12:25:18.017Z,50.82
2023-09-20T12:27:48.017Z,50.68
2023-09-20T12:30:16.061Z,52.78
2023-09-20T12:32:44.393Z,52.98
2023-09-20T12:35:14.454Z,53.05
2023-09-20T12:37:42.240Z,51.29
2023-09-20T12:40:11.774Z,51.90
2023-09-20T12:42:40.153Z,52.41
2023-09-20T12:45:10.435Z,52.43
2023-09-20T12:47:41.462Z,53.37
2023-09-20T12:50:13.560Z,52.95
2023-09-20T12:52:43.631Z,53.83
2023-09-20T12:55:12.002Z,50.92
2023-09-20T12:57:40.129Z,51.03
2023-09-20T13:00:15.433Z,51.81
2023-09-20T13:02:46.686Z,52.21
2023-09-20T13:05:14.983Z,52.08
2023-09-20T13:07:42.722Z,50.93
2023-09-20T13:10:15.011Z,51.51
2023-09-20T13:12:43.072Z,50.98
2023-09-20T13:15:13.968Z,51.84
2023-09-20T13:17:42.273Z,51.70
2023-09-20T13:20:11.253Z,50.17
2023-09-20T13:22:38.972Z,49.30
2023-09-20T13:25:09.375Z,50.39
2023-09-20T13:27:37.193Z,49.02
2023-09-20T13:30:11.068Z,49.36
2023-09-20T13:32:40.426Z,49.18
2023-09-20T13:35:12.285Z,49.26
2023-09-20T13:37:41.880Z,50.00
2023-09-20T13:40:14.039Z,50.30
2023-09-20T13:42:43.134Z,50.39
2023-09-20T13:45:12.628Z,49.60
2023-09-20T13:47:43.028Z,49.07
2023-09-20T13:50:12.059Z,48.88
2023-09-20T13:52:41.513Z,50.17
2023-09-20T13:55:12.380Z,48.95
2023-09-20T13:57:40.224Z,49.36
2023-09-20T14:00:12.574Z,49.48
2023-09-20T14:02:42.043Z,49.08
2023-09-20T14:05:15.598Z,49.20
2023-09-20T14:07:45.562Z,49.96
2023-09-20T14:10:14.158Z,49.74
2023-09-20T14:12:43.467Z,49.47
2023-09-20T14:15:13.614Z,49.15
2023-09-20T14:17:46.308Z,49.57
2023-09-20T14:20:17.444Z,49.77
2023-09-20T14:22:45.373Z,49.20
2023-09-20T14:25:13.182Z,50.51
2023-09-20T14:27:41.910Z,50.34
2023-09-20T14:30:11.594Z,50.89
2023-09-20T14:32:40.505Z,51.02
2023-09-20T14:35:14.036Z,50.39
2023-09-20T14:37:42.201Z,50.42
2023-09-20T14:40:14.001Z,49.96
2023-09-20T14:42:44.953Z,50.69
2023-09-20T14:45:17.794Z,50.37
2023-09-20T14:47:45.959Z,50.22
2023-09-20T14:50:15.800Z,50.64
2023-09-20T14:52:44.620Z,50.94
2023-09-20T14:55:13.792Z,50.62
2023-09-20T14:57:43.152Z,49.77
2023-09-20T15:00:17.776Z,50.01
2023-09-20T15:02:45.768Z,50.65
2023-09-20T15:05:16.058Z,50.80
2023-09-20T15:07:44.388Z,50.89
2023-09-20T15:10:15.206Z,51.46
2023-09-20T15:12:47.035Z,51.22
2023-09-20T15:15:15.751Z,51.90
2023-09-20T15:17:44.303Z,52.38
2023-09-20T15:20:14.778Z,51.34
2023-09-20T15:22:45.564Z,51.53
2023-09-20T15:25:15.945Z,51.58
2023-09-20T15:27:45.689Z,52.33
2023-09-20T15:30:15.122Z,51.72
2023-09-20T15:32:43.672Z,52.81
2023-09-20T15:35:11.992Z,52.36
2023-09-20T15:37:45.786Z,51.76
2023-09-20T15:40:17.319Z,51.76
2023-09-20T15:42:47.763Z,52.39
2023-09-20T15:45:19.245Z,52.89
2023-09-20T15:47:47.709Z,53.14
2023-09-20T15:50:15.917Z,53.10
2023-09-20T15:52:43.762Z,53.74
2023-09-20T15:55:16.412Z,54.00
2023-09-20T15:57:47.169Z,53.59
2023-09-20T16:00:17.338Z,54.84
2023-09-20T16:02:47.046Z,54.22
2023-09-20T16:05:16.432Z,54.09
2023-09-20T16:07:44.757Z,53.42
2023-09-20T16:10:17.550Z,54.59
2023-09-20T16:12:47.727Z,54.66
2023-09-20T16:15:17.286Z,55.19
2023-09-20T16:17:45.765Z,55.14
2023-09-20T16:20:15.789Z,55.02
2023-09-20T16:22:44.513Z,55.34
2023-09-20T16:25:13.240Z,54.84
2023-09-20T16:27:41.035Z,55.21
2023-09-20T16:30:12.648Z,55.09
2023-09-20T16:32:44.118Z,55.22
2023-09-20T16:35:13.097Z,56.33
2023-09-20T16:37:40.953Z,56.24
2023-09-20T16:40:09.949Z,56.71
2023-09-20T16:42:37.833Z,56.02
2023-09-20T16:45:06.479Z,56.95
2023-09-20T16:47:35.765Z,57.64
2023-09-20T16:50:03.534Z,57.72
2023-09-20T16:52:31.238Z,58.22
2023-09-20T16:54:59.113Z,58.74
2023-09-20T16:57:27.314Z,58.95
2023-09-20T16:59:55.038Z,59.11
2023-09-20T17:02:24.912Z,59.16
2023-09-20T17:04:55.441Z,59.57
2023-09-20T17:07:24.841Z,59.39
2023-09-20T17:09:52.741Z,59.99
2023-09-20T17:12:20.830Z,60.12
2023-09-20T17:14:48.699Z,60.52
2023-09-20T17:17:16.648Z,60.52
2023-09-20T17:19:44.322Z,60.51
2023-09-20T17:22:14.484Z,60.36
2023-09-20T17:24:42.161Z,60.68
2023-09-20T17:27:27.013Z,60.74
2023-09-20T17:29:59.027Z,62.06
2023-09-20T17:32:26.984Z,62.26
2023-09-20T17:34:55.630Z,62.83
2023-09-20T17:37:25.146Z,63.49
2023-09-20T17:39:53.277Z,63.42
2023-09-20T17:42:21.176Z,63.36
2023-09-20T17:44:49.320Z,63.41
2023-09-20T17:47:17.202Z,63.61
2023-09-20T17:49:44.852Z,64.29
2023-09-20T17:52:12.626Z,65.63
2023-09-20T17:54:41.794Z,66.88
2023-09-20T17:57:10.302Z,67.86
2023-09-20T17:59:39.682Z,69.04
2023-09-20T18:02:10.540Z,68.59
2023-09-20T18:04:40.356Z,68.96
2023-09-20T18:07:08.119Z,69.51
2023-09-20T18:09:36.134Z,69.22
2023-09-20T18:12:05.650Z,69.16
2023-09-20T18:14:33.547Z,69.37
2023-09-20T18:17:01.836Z,69.76
2023-09-20T18:19:30.090Z,70.28
2023-09-20T18:21:58.432Z,70.61
2023-09-20T18:24:27.206Z,70.53
2023-09-20T18:26:55.911Z,70.90
2023-09-20T18:29:25.199Z,70.52
2023-09-20T18:31:53.253Z,71.40
2023-09-20T18:34:22.022Z,71.97
2023-09-20T18:36:52.429Z,73.12
2023-09-20T18:39:20.113Z,73.84
2023-09-20T18:41:47.968Z,74.14
2023-09-20T18:44:15.812Z,74.22
2023-09-20T18:46:47.149Z,75.01
2023-09-20T18:49:14.963Z,75.41
2023-09-20T18:51:43.542Z,75.71
2023-09-20T18:54:14.259Z,75.97
2023-09-20T18:56:43.024Z,75.56
2023-09-20T18:59:13.167Z,75.83
2023-09-20T19:01:42.258Z,76.02
2023-09-20T19:04:11.509Z,76.01
2023-09-20T19:06:41.474Z,76.96
2023-09-20T19:09:09.628Z,77.28
2023-09-20T19:11:37.626Z,77.45
2023-09-20T19:14:08.105Z,78.29
2023-09-20T19:16:36.137Z,78.03
2023-09-20T19:19:04.037Z,78.10
2023-09-20T19:21:34.519Z,78.96
2023-09-20T19:24:06.791Z,79.29
2023-09-20T19:26:35.465Z,78.99
2023-09-20T19:29:03.375Z,79.75
2023-09-20T19:31:31.440Z,79.73
2023-09-20T19:33:59.247Z,80.09
2023-09-20T19:36:29.923Z,79.38
2023-09-20T19:38:59.387Z,80.18
2023-09-20T19:41:30.473Z,80.71
2023-09-20T19:44:01.676Z,80.37
2023-09-20T19:46:29.941Z,80.31
2023-09-20T19:48:57.783Z,80.15
2023-09-20T19:51:25.699Z,79.95
2023-09-20T19:53:55.369Z,79.93
2023-09-20T19:56:25.324Z,79.37
2023-09-20T19:58:55.906Z,79.33
2023-09-20T20:01:25.258Z,79.73
2023-09-20T20:03:53.216Z,78.87
2023-09-20T20:06:21.364Z,79.00
2023-09-20T20:08:49.249Z,79.70
2023-09-20T20:11:20.762Z,78.60
2023-09-20T20:13:49.992Z,78.02
2023-09-20T20:16:19.063Z,79.25
2023-09-20T20:18:47.691Z,79.59
2023-09-20T20:21:16.505Z,79.82
2023-09-20T20:23:45.282Z,80.10
2023-09-20T20:26:13.829Z,79.94
2023-09-20T20:28:42.562Z,80.26
2023-09-20T20:31:12.075Z,80.77
2023-09-20T20:33:40.827Z,80.72
2023-09-20T20:36:09.889Z,81.04
2023-09-20T20:38:39.377Z,81.04
2023-09-20T20:41:08.441Z,81.14
2023-09-20T20:43:37.961Z,80.97
2023-09-20T20:46:17.005Z,80.81
2023-09-20T20:48:46.192Z,81.36
2023-09-20T20:51:15.798Z,81.65
2023-09-20T20:53:48.016Z,81.70
2023-09-20T20:56:18.074Z,81.51
2023-09-20T20:58:47.613Z,81.97
2023-09-20T21:01:17.105Z,82.18
2023-09-20T21:03:45.934Z,82.48
2023-09-20T21:06:15.403Z,82.58
2023-09-20T21:08:44.421Z,82.52
2023-09-20T21:11:11.772Z,82.05
2023-09-20T21:13:39.837Z,82.78
2023-09-20T21:16:08.659Z,82.82
2023-09-20T21:18:40.279Z,85.55
2023-09-20T21:21:08.845Z,84.70
2023-09-20T21:23:37.070Z,85.62
2023-09-20T21:26:06.509Z,86.86
2023-09-20T21:28:34.244Z,87.80
2023-09-20T21:31:02.724Z,88.13
2023-09-20T21:33:31.375Z,88.11
2023-09-20T21:36:00.681Z,87.88
2023-09-20T21:38:29.018Z,87.19
2023-09-20T21:40:56.805Z,87.13
2023-09-20T21:43:24.881Z,87.17
2023-09-20T21:45:53.146Z,86.46
2023-09-20T21:48:22.459Z,86.48
2023-09-20T21:50:50.657Z,86.40
2023-09-20T21:53:20.024Z,86.52
2023-09-20T21:55:48.033Z,86.56
2023-09-20T21:58:16.803Z,86.65
2023-09-20T22:00:45.768Z,86.81
2023-09-20T22:03:14.750Z,86.97
2023-09-20T22:05:42.739Z,88.18
2023-09-20T22:08:11.821Z,88.44
2023-09-20T22:10:43.369Z,88.48
2023-09-20T22:13:11.532Z,88.82
2023-09-20T22:15:42.004Z,89.00
2023-09-20T22:18:18.796Z,90.36
2023-09-20T22:20:47.506Z,91.50
2023-09-20T22:23:16.048Z,92.15
2023-09-20T22:25:45.517Z,91.51
2023-09-20T22:28:15.141Z,90.46
2023-09-20T22:30:43.159Z,89.84
2023-09-20T22:33:10.965Z,90.28
2023-09-20T22:35:38.892Z,89.68
2023-09-20T22:38:06.803Z,89.69
2023-09-20T22:40:34.493Z,89.46
2023-09-20T22:43:05.494Z,89.30
2023-09-20T22:45:35.542Z,89.71
2023-09-20T22:48:07.297Z,89.93
2023-09-20T22:50:40.385Z,90.92
2023-09-20T22:53:10.751Z,90.44
2023-09-20T22:55:41.635Z,91.14
2023-09-20T22:58:14.334Z,91.24
2023-09-20T23:00:45.086Z,91.52
2023-09-20T23:03:14.747Z,92.38
2023-09-20T23:05:44.254Z,92.62
2023-09-20T23:08:15.348Z,93.84
2023-09-20T23:10:45.993Z,94.75
2023-09-20T23:13:20.436Z,97.01
2023-09-20T23:15:53.276Z,96.59
2023-09-20T23:18:23.013Z,97.44
2023-09-20T23:20:51.707Z,98.68
2023-09-20T23:23:20.820Z,98.31
2023-09-20T23:25:51.139Z,98.65
2023-09-20T23:28:20.775Z,98.11
2023-09-20T23:30:54.071Z,98.25
2023-09-20T23:33:28.514Z,97.13
2023-09-20T23:35:59.104Z,97.02
2023-09-20T23:38:30.494Z,98.00
2023-09-20T23:41:06.506Z,96.11
2023-09-20T23:43:35.904Z,95.99
2023-09-20T23:46:05.888Z,97.05
2023-09-20T23:48:34.062Z,96.80
2023-09-20T23:51:03.231Z,97.00
2023-09-20T23:53:31.010Z,96.87
2023-09-20T23:55:59.432Z,97.53
2023-09-20T23:58:28.393Z,97.41
